Time;durP1;ratioP1;P1;durP2;ratioP2;P2;SDS_P1;SDS_P2;PMS_P1;PMS_P2;Temp;Humidity;BMP_temperature;BMP_pressure;BME280_temperature;BME280_humidity;BME280_pressure;Samples;Min_cycle;Max_cycle;Signal;HPM_P1;HPM_P2
2023/04/22 00:01:48;;;;;;;9.65;4.43;;;;;;;9.18;82.55;100933.84;4976293;28;98062;-30
2023/04/22 00:04:13;;;;;;;7.88;4.95;;;;;;;9.12;83.59;100929.63;4975977;28;98854;-31
2023/04/22 00:06:39;;;;;;;7.05;4.28;;;;;;;9.07;82.91;100926.31;4976416;28;96615;-33
2023/04/22 00:09:04;;;;;;;6.88;4.25;;;;;;;9.07;83.05;100931.72;4975456;28;96793;-31
2023/04/22 00:11:30;;;;;;;7.85;4.25;;;;;;;9.02;82.99;100922.97;4976079;28;97469;-31
2023/04/22 00:13:55;;;;;;;7.28;4.65;;;;;;;9.01;83.34;100928.47;4975888;28;99519;-32
2023/04/22 00:16:20;;;;;;;7.57;4.53;;;;;;;8.99;82.87;100927.69;4975858;28;96490;-32
2023/04/22 00:18:46;;;;;;;10.52;5.18;;;;;;;8.96;83.09;100928.69;4976208;28;96915;-31
2023/04/22 00:21:11;;;;;;;9.40;5.53;;;;;;;8.92;82.78;100925.31;4975810;28;99777;-32
2023/04/22 00:23:37;;;;;;;9.95;4.63;;;;;;;8.88;83.09;100922.84;4976049;28;97314;-31
2023/04/22 00:26:02;;;;;;;8.18;5.05;;;;;;;8.85;83.53;100932.00;4976350;28;96948;-31
2023/04/22 00:28:27;;;;;;;10.02;5.45;;;;;;;8.84;83.47;100919.47;4975910;28;96768;-32
2023/04/22 00:30:53;;;;;;;8.48;4.82;;;;;;;8.81;83.25;100914.19;4975271;28;99360;-31
2023/04/22 00:33:18;;;;;;;6.93;5.07;;;;;;;8.79;84.14;100921.50;4975890;28;97790;-31
2023/04/22 00:35:46;;;;;;;9.85;5.35;;;;;;;8.76;83.44;100920.81;4975922;28;96767;-31
2023/04/22 00:38:12;;;;;;;8.10;4.53;;;;;;;8.76;83.13;100926.22;4975855;28;96821;-31
2023/04/22 00:40:37;;;;;;;7.55;5.15;;;;;;;8.71;83.28;100926.44;4975223;28;97891;-32
2023/04/22 00:43:03;;;;;;;10.23;4.78;;;;;;;8.69;83.34;100928.34;4976017;28;97318;-32
2023/04/22 00:45:29;;;;;;;8.40;5.07;;;;;;;8.67;83.45;100922.16;4974461;28;96551;-32
2023/04/22 00:47:55;;;;;;;8.63;4.97;;;;;;;8.66;83.31;100932.09;4974438;28;97127;-31
2023/04/22 00:50:20;;;;;;;8.88;6.07;;;;;;;8.64;83.24;100931.28;4975415;28;97415;-32
2023/04/22 00:52:46;;;;;;;10.05;5.20;;;;;;;8.61;83.48;100933.28;4975421;28;99797;-31
2023/04/22 00:55:11;;;;;;;9.90;5.95;;;;;;;8.60;83.92;100928.81;4975804;28;97245;-31
2023/04/22 00:57:38;;;;;;;14.10;6.70;;;;;;;8.60;84.52;100937.78;4976066;28;96752;-31
2023/04/22 01:00:05;;;;;;;11.27;5.95;;;;;;;8.60;83.68;100939.63;4973780;28;101272;-32
2023/04/22 01:02:31;;;;;;;11.93;5.00;;;;;;;8.59;84.60;100927.97;4973853;28;101063;-31
2023/04/22 01:04:56;;;;;;;9.38;4.95;;;;;;;8.59;83.35;100932.50;4975263;28;96536;-31
2023/04/22 01:07:22;;;;;;;10.32;5.72;;;;;;;8.61;83.25;100936.00;4975498;28;96713;-32
2023/04/22 01:09:48;;;;;;;11.68;6.13;;;;;;;8.61;83.85;100928.75;4973873;28;101547;-31
2023/04/22 01:12:14;;;;;;;9.95;5.95;;;;;;;8.60;83.55;100920.72;4975169;28;99389;-32
2023/04/22 01:14:39;;;;;;;15.15;6.47;;;;;;;8.59;83.00;100914.47;4975310;28;96486;-31
2023/04/22 01:17:05;;;;;;;11.90;5.63;;;;;;;8.61;83.79;100919.78;4975256;28;96853;-31
2023/04/22 01:19:31;;;;;;;11.93;6.55;;;;;;;8.60;83.64;100921.59;4974874;28;98327;-32
2023/04/22 01:21:58;;;;;;;10.55;6.15;;;;;;;8.56;83.84;100924.56;4974084;28;101000;-31
2023/04/22 01:24:23;;;;;;;12.60;5.95;;;;;;;8.54;84.24;100930.03;4974066;28;96673;-30
2023/04/22 01:26:49;;;;;;;8.05;5.15;;;;;;;8.52;83.43;100921.13;4975367;28;96926;-31
2023/04/22 01:29:14;;;;;;;8.57;5.28;;;;;;;8.50;84.55;100923.91;4974635;28;97445;-30
2023/04/22 01:31:40;;;;;;;10.15;5.60;;;;;;;8.47;84.04;100929.47;4974367;28;98644;-32
2023/04/22 01:34:06;;;;;;;9.45;5.63;;;;;;;8.43;84.73;100927.88;4974833;28;96492;-31
2023/04/22 01:36:32;;;;;;;9.05;5.35;;;;;;;8.40;84.95;100919.94;4973833;28;96866;-31
2023/04/22 01:38:58;;;;;;;7.63;4.72;;;;;;;8.36;83.92;100929.09;4973268;28;101253;-30
2023/04/22 01:41:24;;;;;;;9.68;5.78;;;;;;;8.32;84.00;100918.53;4975221;28;97388;-31
2023/04/22 01:43:52;;;;;;;9.60;5.25;;;;;;;8.30;84.63;100918.63;4975005;28;96481;-30
2023/04/22 01:46:17;;;;;;;9.40;5.45;;;;;;;8.27;84.62;100916.06;4973915;28;96808;-31
2023/04/22 01:48:49;;;;;;;9.27;6.13;;;;;;;8.23;84.20;100917.22;4974978;28;97307;-31
2023/04/22 01:51:15;;;;;;;9.20;5.50;;;;;;;8.20;84.23;100920.94;4974261;28;99333;-31
2023/04/22 01:53:40;;;;;;;6.65;4.63;;;;;;;8.14;85.17;100926.63;4973091;28;96578;-30
2023/04/22 01:56:06;;;;;;;9.80;5.10;;;;;;;8.11;84.78;100916.00;4974843;28;96809;-31
2023/04/22 01:58:32;;;;;;;9.30;4.97;;;;;;;8.11;85.02;100917.84;4974693;28;97895;-33
2023/04/22 02:00:57;;;;;;;9.25;5.72;;;;;;;8.12;84.73;100916.88;4973052;28;101136;-31
2023/04/22 02:03:23;;;;;;;8.88;5.32;;;;;;;8.06;84.81;100913.53;4974620;28;96513;-30
2023/04/22 02:05:48;;;;;;;11.82;5.55;;;;;;;8.05;84.82;100917.16;4974994;28;96875;-32
2023/04/22 02:08:13;;;;;;;8.18;5.05;;;;;;;8.02;84.94;100914.63;4974340;28;98894;-31
2023/04/22 02:10:39;;;;;;;8.35;5.22;;;;;;;8.05;84.40;100919.84;4978360;28;97768;-31
2023/04/22 02:13:04;;;;;;;9.38;5.50;;;;;;;8.01;84.82;100918.28;4978096;28;96468;-31
2023/04/22 02:15:30;;;;;;;9.07;5.88;;;;;;;8.02;84.88;100911.94;4978269;28;96744;-34
2023/04/22 02:17:55;;;;;;;8.57;5.40;;;;;;;8.03;84.77;100902.91;4977598;28;98219;-33
2023/04/22 02:20:20;;;;;;;7.95;4.70;;;;;;;8.07;84.16;100909.00;4977805;28;97332;-30
2023/04/22 02:22:46;;;;;;;7.75;4.13;;;;;;;8.01;84.38;100914.72;4978086;28;96627;-31
2023/04/22 02:25:12;;;;;;;10.85;5.60;;;;;;;8.00;84.62;100916.53;4977955;28;96822;-31
2023/04/22 02:27:38;;;;;;;7.93;5.22;;;;;;;8.01;84.77;100918.28;4977645;28;98994;-31
2023/04/22 02:30:04;;;;;;;8.18;5.60;;;;;;;8.02;84.31;100916.47;4977378;28;97911;-31
2023/04/22 02:32:30;;;;;;;9.60;5.68;;;;;;;8.03;84.77;100921.78;4976548;28;96507;-31
2023/04/22 02:34:55;;;;;;;10.45;4.93;;;;;;;8.07;84.16;100922.50;4976682;28;96931;-31
2023/04/22 02:37:21;;;;;;;9.27;6.18;;;;;;;8.05;85.35;100919.84;4977609;28;97890;-31
2023/04/22 02:39:47;;;;;;;9.35;5.97;;;;;;;8.05;85.61;100916.28;4977365;28;99140;-31
2023/04/22 02:42:13;;;;;;;8.18;5.13;;;;;;;8.01;84.96;100915.59;4976115;28;96572;-30
2023/04/22 02:44:38;;;;;;;12.55;5.93;;;;;;;7.98;85.72;100912.16;4977730;28;96835;-31
2023/04/22 02:47:05;;;;;;;10.43;6.07;;;;;;;8.02;85.40;100902.97;4977304;28;99710;-30
2023/04/22 02:49:30;;;;;;;7.97;5.35;;;;;;;8.07;86.45;100906.31;4975698;28;100845;-31
2023/04/22 02:51:56;;;;;;;8.68;5.03;;;;;;;8.06;85.63;100894.66;4977673;28;96467;-32
2023/04/22 02:54:22;;;;;;;12.30;5.20;;;;;;;8.07;85.65;100890.13;4976330;28;96793;-31
2023/04/22 02:56:47;;;;;;;10.52;5.35;;;;;;;8.07;85.45;100892.81;4977485;28;97865;-32
2023/04/22 02:59:12;;;;;;;11.05;5.90;;;;;;;8.07;84.89;100888.28;4977433;28;97784;-30
2023/04/22 03:01:37;;;;;;;13.13;5.30;;;;;;;8.06;86.02;100883.84;4977629;28;96959;-31
2023/04/22 03:04:03;;;;;;;9.35;5.63;;;;;;;8.06;85.10;100891.94;4977702;28;96832;-31
2023/04/22 03:06:28;;;;;;;10.98;6.10;;;;;;;8.05;85.24;100883.94;4976811;28;98015;-30
2023/04/22 03:08:53;;;;;;;10.35;5.55;;;;;;;8.02;84.96;100881.38;4975849;28;99105;-31
2023/04/22 03:11:19;;;;;;;9.43;5.63;;;;;;;8.02;85.44;100878.69;4977322;28;96505;-31
2023/04/22 03:13:45;;;;;;;7.10;4.88;;;;;;;7.97;85.17;100868.13;4975665;28;96982;-30
2023/04/22 03:16:10;;;;;;;8.77;4.68;;;;;;;8.01;86.37;100869.72;4977171;28;97149;-32
2023/04/22 03:18:35;;;;;;;11.10;5.93;;;;;;;8.00;86.46;100859.88;4976912;28;97417;-31
2023/04/22 03:21:01;;;;;;;10.18;5.80;;;;;;;8.02;86.87;100866.06;4976241;28;96424;-31
2023/04/22 03:23:26;;;;;;;7.88;4.90;;;;;;;8.05;86.43;100868.59;4977506;28;96814;-31
2023/04/22 03:25:51;;;;;;;8.80;5.28;;;;;;;8.03;86.63;100857.03;4976979;28;97536;-33
2023/04/22 03:28:17;;;;;;;7.90;4.70;;;;;;;8.04;86.93;100863.31;4976624;28;97753;-32
2023/04/22 03:30:42;;;;;;;8.57;5.40;;;;;;;8.05;85.44;100848.84;4976405;28;96994;-31
2023/04/22 03:33:08;;;;;;;8.30;4.40;;;;;;;8.06;85.89;100847.94;4977115;28;96794;-31
2023/04/22 03:35:33;;;;;;;9.70;4.75;;;;;;;8.05;86.49;100855.13;4976571;28;98782;-31
2023/04/22 03:37:59;;;;;;;11.57;5.00;;;;;;;8.04;87.04;100852.53;4976608;28;97764;-31
2023/04/22 03:40:24;;;;;;;6.75;4.22;;;;;;;8.05;86.19;100848.84;4977087;28;96635;-31
2023/04/22 03:42:49;;;;;;;8.55;4.32;;;;;;;8.01;86.94;100844.59;4976744;28;96751;-30
2023/04/22 03:45:15;;;;;;;6.95;4.60;;;;;;;7.99;85.67;100847.34;4976375;28;99219;-31
2023/04/22 03:47:40;;;;;;;8.15;4.63;;;;;;;8.03;86.41;100846.25;4976920;28;97359;-32
2023/04/22 03:50:06;;;;;;;7.32;4.65;;;;;;;8.04;85.52;100847.13;4976376;28;96671;-31
2023/04/22 03:52:31;;;;;;;8.15;4.20;;;;;;;8.02;85.50;100844.50;4976668;28;96851;-31
2023/04/22 03:54:56;;;;;;;7.63;4.28;;;;;;;8.03;85.95;100832.78;4975866;28;98027;-31
2023/04/22 03:57:21;;;;;;;8.25;4.85;;;;;;;8.07;85.49;100833.47;4976246;28;97777;-32
2023/04/22 03:59:47;;;;;;;6.05;4.22;;;;;;;8.06;85.20;100835.31;4976763;28;96459;-31
2023/04/22 04:02:12;;;;;;;8.43;4.75;;;;;;;8.08;85.35;100836.09;4976777;28;96770;-30
2023/04/22 04:04:37;;;;;;;7.95;4.80;;;;;;;8.08;85.70;100833.41;4974737;28;98140;-30
2023/04/22 04:07:03;;;;;;;9.65;5.40;;;;;;;8.07;86.57;100831.63;4976226;28;97178;-30
2023/04/22 04:09:28;;;;;;;9.50;4.63;;;;;;;8.10;86.72;100825.22;4976518;28;96622;-33
2023/04/22 04:11:54;;;;;;;7.90;5.15;;;;;;;8.09;86.17;100831.56;4976984;28;96775;-31
2023/04/22 04:14:19;;;;;;;9.10;4.32;;;;;;;8.05;85.90;100824.56;4975877;28;99533;-31
2023/04/22 04:16:44;;;;;;;8.23;4.78;;;;;;;8.08;85.83;100827.13;4976223;28;97765;-31
2023/04/22 04:19:10;;;;;;;5.07;4.00;;;;;;;8.08;85.82;100819.91;4975891;28;96531;-31
2023/04/22 04:21:36;;;;;;;7.07;4.82;;;;;;;8.03;86.85;100813.88;4976287;28;96615;-31
2023/04/22 04:24:02;;;;;;;8.95;5.53;;;;;;;8.03;85.18;100811.19;4975779;28;99863;-31
2023/04/22 04:26:28;;;;;;;9.57;5.25;;;;;;;8.04;86.95;100803.97;4974448;28;101157;-31
2023/04/22 04:28:54;;;;;;;8.45;5.03;;;;;;;8.05;87.14;100800.31;4976363;28;96568;-31
2023/04/22 04:31:20;;;;;;;8.02;4.80;;;;;;;8.07;86.29;100803.78;4974123;28;96820;-31
2023/04/22 04:33:46;;;;;;;8.20;5.13;;;;;;;8.05;87.33;100808.41;4973968;28;100773;-31
2023/04/22 04:36:12;;;;;;;7.22;4.40;;;;;;;8.06;86.51;100808.31;4975947;28;99402;-31
2023/04/22 04:38:37;;;;;;;8.43;4.05;;;;;;;8.08;86.72;100810.97;4974438;28;96613;-31
2023/04/22 04:41:03;;;;;;;11.43;5.13;;;;;;;8.06;86.26;100802.94;4975619;28;96763;-31
2023/04/22 04:43:29;;;;;;;12.20;5.07;;;;;;;8.11;86.43;100809.91;4974847;28;99721;-32
2023/04/22 04:45:54;;;;;;;8.73;4.55;;;;;;;8.11;86.22;100802.69;4975723;28;97518;-30
2023/04/22 04:48:23;;;;;;;9.52;5.47;;;;;;;8.12;86.38;100800.84;4976109;28;96470;-30
2023/04/22 04:50:52;;;;;;;7.53;5.65;;;;;;;8.09;87.04;100800.06;4974183;28;96856;-31
2023/04/22 04:53:18;;;;;;;9.20;5.00;;;;;;;8.06;86.61;100805.63;4974056;28;100533;-32
2023/04/22 04:55:44;;;;;;;7.50;4.75;;;;;;;8.09;86.63;100808.16;4973772;28;100755;-31
2023/04/22 04:58:09;;;;;;;10.07;5.82;;;;;;;8.09;86.46;100799.19;4975808;28;96560;-32
2023/04/22 05:00:34;;;;;;;7.40;5.20;;;;;;;8.07;86.65;100782.22;4975832;28;96795;-31
2023/04/22 05:03:00;;;;;;;8.20;4.78;;;;;;;8.12;86.39;100790.06;4975528;28;97690;-32
2023/04/22 05:05:25;;;;;;;12.38;5.43;;;;;;;8.10;86.22;100787.44;4975450;28;97308;-30
2023/04/22 05:07:52;;;;;;;7.55;5.15;;;;;;;8.11;86.17;100788.34;4975286;28;96527;-31
2023/04/22 05:10:18;;;;;;;11.98;5.68;;;;;;;8.10;86.49;100784.75;4975109;28;96693;-32
2023/04/22 05:12:45;;;;;;;8.30;5.10;;;;;;;8.14;86.42;100796.25;4975168;28;99372;-30
2023/04/22 05:15:10;;;;;;;8.07;4.63;;;;;;;8.13;86.38;100795.41;4975002;28;99224;-31
2023/04/22 05:17:35;;;;;;;8.57;4.75;;;;;;;8.13;85.87;100791.81;4975705;28;96654;-31
2023/04/22 05:20:02;;;;;;;10.00;5.15;;;;;;;8.14;86.13;100799.81;4975450;28;96757;-31
2023/04/22 05:22:27;;;;;;;9.32;5.57;;;;;;;8.16;86.40;100810.53;4973757;28;100817;-31
2023/04/22 05:24:53;;;;;;;8.85;4.78;;;;;;;8.14;86.67;100809.75;4975445;28;98262;-31
2023/04/22 05:27:18;;;;;;;9.27;5.45;;;;;;;8.16;86.86;100816.81;4975480;28;96611;-32
2023/04/22 05:29:43;;;;;;;8.68;5.10;;;;;;;8.20;85.82;100821.09;4974971;28;96832;-31
2023/04/22 05:32:09;;;;;;;8.23;5.13;;;;;;;8.22;86.61;100813.81;4974522;28;97837;-30
2023/04/22 05:34:34;;;;;;;6.55;4.85;;;;;;;8.23;86.73;100814.66;4974703;28;97748;-30
2023/04/22 05:37:02;;;;;;;8.25;5.40;;;;;;;8.20;85.94;100810.31;4974993;28;96534;-31
2023/04/22 05:39:27;;;;;;;9.90;5.28;;;;;;;8.23;86.56;100812.84;4973578;28;96876;-32
2023/04/22 05:41:53;;;;;;;8.18;5.55;;;;;;;8.25;86.33;100819.03;4974642;28;97912;-31
2023/04/22 05:44:19;;;;;;;9.45;6.38;;;;;;;8.30;86.63;100826.88;4972687;28;98829;-31
2023/04/22 05:46:44;;;;;;;8.80;5.10;;;;;;;8.32;85.90;100814.19;4975067;28;96589;-30
2023/04/22 05:49:09;;;;;;;6.07;4.53;;;;;;;8.33;87.19;100815.06;4975303;28;96905;-32
2023/04/22 05:51:35;;;;;;;6.18;4.07;;;;;;;8.32;86.71;100798.00;4974573;28;97891;-31
2023/04/22 05:54:00;;;;;;;7.00;4.60;;;;;;;8.40;85.91;100808.41;4974649;28;97792;-31
2023/04/22 05:56:25;;;;;;;9.02;5.68;;;;;;;8.41;86.06;100799.34;4974506;28;96608;-31
2023/04/22 05:58:51;;;;;;;6.60;4.50;;;;;;;8.42;86.54;100796.56;4974952;28;96790;-31
2023/04/22 06:01:16;;;;;;;8.93;5.70;;;;;;;8.43;85.81;100794.75;4975052;28;97273;-32
2023/04/22 06:03:41;;;;;;;9.18;5.38;;;;;;;8.45;86.01;100782.91;4974810;28;97927;-31
2023/04/22 06:06:07;;;;;;;7.13;5.18;;;;;;;8.49;85.75;100791.72;4974875;28;96568;-31
2023/04/22 06:08:33;;;;;;;11.63;5.78;;;;;;;8.49;85.81;100778.22;4974899;28;96742;-31
2023/04/22 06:10:58;;;;;;;9.30;5.38;;;;;;;8.53;85.89;100781.63;4973956;28;97993;-33
2023/04/22 06:13:24;;;;;;;7.53;4.95;;;;;;;8.55;85.94;100788.69;4972255;28;101096;-32
2023/04/22 06:15:49;;;;;;;8.57;5.38;;;;;;;8.61;86.22;100790.19;4971558;28;97111;-31
2023/04/22 06:18:15;;;;;;;9.43;4.30;;;;;;;8.58;86.09;100783.13;4974631;28;96780;-31
2023/04/22 06:20:40;;;;;;;7.65;4.78;;;;;;;8.66;85.84;100790.81;4973842;28;97411;-33
2023/04/22 06:23:05;;;;;;;8.45;4.85;;;;;;;8.65;86.11;100784.56;4974415;28;97865;-30
2023/04/22 06:25:31;;;;;;;7.88;3.90;;;;;;;8.72;86.20;100795.84;4974505;28;96620;-31
2023/04/22 06:27:58;;;;;;;8.40;4.90;;;;;;;8.74;85.99;100774.19;4974508;28;96828;-30
2023/04/22 06:30:23;;;;;;;6.85;4.78;;;;;;;8.78;85.81;100770.38;4972659;28;100793;-31
2023/04/22 06:32:50;;;;;;;6.80;4.55;;;;;;;8.84;85.29;100780.81;4973913;28;97870;-32
2023/04/22 06:35:16;;;;;;;9.23;4.72;;;;;;;8.92;85.20;100774.03;4973305;28;96675;-30
2023/04/22 06:37:41;;;;;;;8.52;5.30;;;;;;;9.00;85.45;100770.03;4975015;28;96850;-32
2023/04/22 06:40:07;;;;;;;8.75;5.00;;;;;;;9.09;84.21;100772.22;4973909;28;99235;-30
2023/04/22 06:42:33;;;;;;;9.77;4.68;;;;;;;9.17;84.19;100769.94;4972745;28;100881;-31
2023/04/22 06:44:58;;;;;;;9.55;4.80;;;;;;;9.19;84.26;100757.22;4973813;28;96558;-31
2023/04/22 06:47:24;;;;;;;7.68;4.97;;;;;;;9.30;83.46;100762.00;4974556;28;96740;-31
2023/04/22 06:49:49;;;;;;;6.82;4.55;;;;;;;9.37;84.59;100763.41;4974046;28;97654;-30
2023/04/22 06:52:14;;;;;;;8.27;5.03;;;;;;;9.39;83.54;100764.19;4973896;28;97873;-30
2023/04/22 06:54:43;;;;;;;6.10;4.28;;;;;;;9.46;83.28;100752.06;4976563;28;96594;-31
2023/04/22 06:57:08;;;;;;;9.52;5.10;;;;;;;9.49;84.33;100751.00;4977900;28;96805;-31
2023/04/22 06:59:34;;;;;;;8.23;4.30;;;;;;;9.52;83.23;100748.97;4976998;28;99409;-31
2023/04/22 07:01:59;;;;;;;9.00;4.18;;;;;;;9.63;83.24;100759.19;4977654;28;97746;-31
2023/04/22 07:04:26;;;;;;;7.53;4.45;;;;;;;9.69;83.53;100756.09;4977495;28;96559;-31
2023/04/22 07:06:52;;;;;;;7.63;4.85;;;;;;;9.72;83.57;100750.50;4976073;28;96790;-31
2023/04/22 07:09:17;;;;;;;7.80;4.72;;;;;;;9.78;84.32;100757.38;4975206;28;100920;-31
2023/04/22 07:11:43;;;;;;;6.68;3.72;;;;;;;9.85;83.44;100761.47;4977194;28;97241;-30
2023/04/22 07:14:08;;;;;;;5.70;3.58;;;;;;;9.85;84.42;100757.91;4977391;28;96611;-30
2023/04/22 07:16:33;;;;;;;6.53;4.55;;;;;;;9.96;83.41;100774.34;4977171;28;97173;-32
2023/04/22 07:18:59;;;;;;;5.97;3.88;;;;;;;10.06;83.08;100770.13;4976758;28;97970;-31
2023/04/22 07:21:25;;;;;;;11.43;4.43;;;;;;;10.09;84.01;100758.25;4976737;28;99214;-32
2023/04/22 07:23:50;;;;;;;6.75;4.18;;;;;;;10.09;82.97;100760.94;4977073;28;96528;-31
2023/04/22 07:26:16;;;;;;;5.95;3.90;;;;;;;10.15;83.03;100768.69;4977722;28;96747;-31
2023/04/22 07:28:41;;;;;;;7.20;4.72;;;;;;;10.23;82.59;100779.94;4976594;28;99659;-31
2023/04/22 07:31:08;;;;;;;6.38;4.22;;;;;;;10.30;82.72;100778.63;4975202;28;98939;-32
2023/04/22 07:33:37;;;;;;;7.25;4.30;;;;;;;10.36;82.10;100772.81;4974632;28;96958;-32
2023/04/22 07:36:02;;;;;;;6.85;4.70;;;;;;;10.50;82.97;100774.66;4976848;28;96762;-31
2023/04/22 07:38:28;;;;;;;7.40;4.03;;;;;;;10.73;82.50;100770.50;4976465;28;97881;-33
2023/04/22 07:40:53;;;;;;;6.95;3.88;;;;;;;10.89;81.85;100764.97;4976366;28;97937;-30
2023/04/22 07:43:19;;;;;;;6.28;4.03;;;;;;;11.09;81.77;100773.66;4976805;28;96647;-32
2023/04/22 07:45:44;;;;;;;6.18;3.78;;;;;;;11.38;79.92;100767.19;4975581;28;96921;-31
2023/04/22 07:48:10;;;;;;;6.85;4.40;;;;;;;11.71;79.61;100763.19;4978866;28;100540;-30
2023/04/22 07:50:35;;;;;;;7.93;3.78;;;;;;;12.07;78.79;100753.53;4990259;28;97388;-31
2023/04/22 07:53:00;;;;;;;6.28;3.83;;;;;;;12.16;77.31;100739.31;4988485;28;96539;-32
2023/04/22 07:55:26;;;;;;;6.82;3.78;;;;;;;12.29;77.26;100742.03;4995335;28;96881;-30
2023/04/22 07:57:51;;;;;;;5.97;3.88;;;;;;;12.59;76.26;100729.97;4995839;28;97941;-31
2023/04/22 08:00:17;;;;;;;9.55;4.05;;;;;;;12.80;75.56;100727.53;4989016;28;97737;-32
2023/04/22 08:02:42;;;;;;;6.90;4.20;;;;;;;13.10;74.84;100713.53;4976596;28;96536;-31
2023/04/22 08:05:08;;;;;;;7.25;3.70;;;;;;;13.45;73.74;100716.38;4987798;28;97031;-31
2023/04/22 08:07:34;;;;;;;5.45;3.22;;;;;;;13.62;72.61;100717.81;4974571;28;100473;-30
2023/04/22 08:09:59;;;;;;;6.40;3.58;;;;;;;13.53;72.21;100718.50;4976279;28;97735;-30
2023/04/22 08:12:24;;;;;;;5.65;3.08;;;;;;;13.46;72.72;100722.66;4976426;28;96813;-31
2023/04/22 08:14:50;;;;;;;5.30;3.17;;;;;;;13.34;72.80;100713.56;4977253;28;96752;-32
2023/04/22 08:17:16;;;;;;;7.40;3.42;;;;;;;13.34;72.34;100725.31;4976139;28;97901;-30
2023/04/22 08:19:41;;;;;;;6.35;3.42;;;;;;;13.36;72.41;100736.97;4983991;28;99616;-31
2023/04/22 08:22:06;;;;;;;5.43;3.47;;;;;;;13.48;73.03;100731.59;4995536;28;96642;-31
2023/04/22 08:24:31;;;;;;;6.07;3.15;;;;;;;13.65;72.49;100735.75;4983463;28;96828;-30
2023/04/22 08:26:57;;;;;;;6.00;3.63;;;;;;;13.62;72.09;100725.09;4974571;28;99268;-31
2023/04/22 08:29:22;;;;;;;5.40;3.10;;;;;;;13.58;71.93;100724.44;4975957;28;97328;-31
2023/04/22 08:31:48;;;;;;;5.15;3.47;;;;;;;13.72;72.31;100735.16;4976010;28;96628;-30
2023/04/22 08:34:13;;;;;;;5.85;3.20;;;;;;;13.90;69.81;100729.28;4974495;28;96810;-31
2023/04/22 08:36:38;;;;;;;5.72;3.70;;;;;;;14.22;70.69;100724.03;4975425;28;99302;-30
2023/04/22 08:39:04;;;;;;;5.60;3.25;;;;;;;14.52;69.24;100722.59;4976315;28;97274;-31
2023/04/22 08:41:34;;;;;;;5.22;3.08;;;;;;;14.46;69.40;100718.50;4975732;28;96703;-31
2023/04/22 08:44:00;;;;;;;5.57;2.90;;;;;;;14.38;69.28;100719.09;4975896;28;96785;-31
2023/04/22 08:46:27;;;;;;;6.30;3.15;;;;;;;14.35;68.83;100705.75;4974893;28;99452;-30
2023/04/22 08:48:53;;;;;;;3.53;2.30;;;;;;;14.53;67.00;100707.97;4974032;28;100911;-30
2023/04/22 08:51:18;;;;;;;3.88;2.42;;;;;;;14.65;68.14;100704.28;4975749;28;96476;-32
2023/04/22 08:53:44;;;;;;;4.13;2.60;;;;;;;14.62;66.71;100696.38;4975882;28;96959;-31
2023/04/22 08:56:12;;;;;;;3.67;2.58;;;;;;;14.58;67.99;100690.28;4975487;28;97948;-31
2023/04/22 08:58:41;;;;;;;5.10;2.95;;;;;;;14.35;67.85;100680.31;4975559;28;97816;-31
2023/04/22 09:01:07;;;;;;;5.72;2.50;;;;;;;14.31;66.00;100674.25;4974184;28;96628;-31
2023/04/22 09:03:36;;;;;;;5.95;2.53;;;;;;;14.30;66.61;100672.56;4974073;28;96899;-31
2023/04/22 09:06:03;;;;;;;6.32;2.78;;;;;;;14.24;68.08;100648.50;4975168;28;97954;-31
2023/04/22 09:08:30;;;;;;;5.68;2.88;;;;;;;14.20;68.79;100652.47;4975214;28;99302;-32
2023/04/22 09:10:57;;;;;;;5.95;2.67;;;;;;;14.09;68.93;100636.13;4957675;28;96592;-31
2023/04/22 09:13:24;;;;;;;4.18;2.75;;;;;;;13.99;70.06;100644.13;4973819;28;96831;-31
2023/04/22 09:15:50;;;;;;;3.95;2.30;;;;;;;13.83;70.69;100633.59;4973912;28;101207;-31
2023/04/22 09:18:19;;;;;;;5.45;3.50;;;;;;;13.75;71.69;100636.03;4975053;28;97635;-32
2023/04/22 09:20:47;;;;;;;6.05;3.28;;;;;;;13.72;71.85;100644.47;4974092;28;96769;-31
2023/04/22 09:23:13;;;;;;;5.20;3.15;;;;;;;13.72;71.81;100642.59;4973972;28;96892;-32
2023/04/22 09:25:39;;;;;;;5.63;3.25;;;;;;;13.69;72.05;100658.31;4974807;28;99604;-31
2023/04/22 09:28:09;;;;;;;5.63;3.22;;;;;;;13.68;72.19;100659.28;4975420;28;98510;-31
2023/04/22 09:30:36;;;;;;;3.92;2.65;;;;;;;13.67;72.02;100654.84;4973742;28;96739;-31
2023/04/22 09:33:04;;;;;;;5.13;2.70;;;;;;;13.73;70.65;100677.03;4973327;28;96923;-31
2023/04/22 09:35:36;;;;;;;4.32;2.42;;;;;;;13.96;70.85;100671.63;4974435;28;99748;-32
2023/04/22 09:38:05;;;;;;;5.90;2.95;;;;;;;14.10;70.36;100673.25;4973651;28;100841;-33
2023/04/22 09:40:31;;;;;;;5.00;2.97;;;;;;;14.14;68.87;100674.75;4973717;28;96731;-31
2023/04/22 09:42:59;;;;;;;3.85;2.45;;;;;;;14.10;68.58;100684.16;4973827;28;96837;-30
2023/04/22 09:45:35;;;;;;;4.22;2.28;;;;;;;14.16;69.33;100691.84;4973188;28;101114;-31
2023/04/22 09:48:18;;;;;;;6.03;2.70;;;;;;;14.30;68.15;100691.63;4973434;28;100751;-32
2023/04/22 09:50:46;;;;;;;6.63;2.85;;;;;;;14.45;68.31;100695.81;4973589;28;96750;-31
2023/04/22 09:53:15;;;;;;;5.88;3.15;;;;;;;14.55;67.77;100697.84;4973997;28;96875;-30
2023/04/22 09:55:43;;;;;;;5.72;2.90;;;;;;;14.66;68.09;100708.75;4974260;28;99517;-31
2023/04/22 09:58:11;;;;;;;4.45;3.08;;;;;;;14.82;66.42;100709.22;4973361;28;101152;-31
2023/04/22 10:00:45;;;;;;;5.03;3.03;;;;;;;15.00;66.92;100708.72;4972922;28;96744;-30
2023/04/22 10:03:11;;;;;;;4.82;2.72;;;;;;;15.03;67.50;100686.63;4973618;28;96822;-31
2023/04/22 10:05:36;;;;;;;5.82;3.33;;;;;;;15.01;67.48;100699.53;4974713;28;97966;-30
2023/04/22 10:08:08;;;;;;;4.85;2.85;;;;;;;14.90;67.72;100699.53;4974121;28;99893;-32
2023/04/22 10:10:35;;;;;;;5.35;2.90;;;;;;;14.84;68.20;100692.75;4957414;28;96474;-30
2023/04/22 10:13:05;;;;;;;5.18;2.65;;;;;;;14.75;67.36;100691.63;4973484;28;96857;-31
2023/04/22 10:15:41;;;;;;;5.40;2.75;;;;;;;14.64;67.98;100692.53;4972963;28;99998;-32
2023/04/22 10:18:15;;;;;;;6.47;3.17;;;;;;;14.62;68.34;100686.31;4940975;28;100929;-31
2023/04/22 10:20:42;;;;;;;5.88;3.03;;;;;;;14.47;68.20;100694.81;4974450;28;97306;-31
2023/04/22 10:23:18;;;;;;;6.05;3.03;;;;;;;14.27;67.65;100702.75;4973313;28;96912;-30
2023/04/22 10:25:48;;;;;;;4.70;2.60;;;;;;;14.20;69.03;100704.22;4972106;28;101304;-31
2023/04/22 10:28:15;;;;;;;3.97;2.47;;;;;;;14.15;69.01;100718.19;4972941;28;100281;-31
2023/04/22 10:30:41;;;;;;;5.28;2.83;;;;;;;14.12;68.89;100715.72;4977423;28;96872;-30
2023/04/22 10:33:30;;;;;;;4.95;2.67;;;;;;;14.09;68.28;100707.81;4958697;28;96829;-34
2023/04/22 10:36:14;;;;;;;5.72;2.38;;;;;;;14.02;69.23;100703.81;4977252;28;99031;-32
2023/04/22 10:38:48;;;;;;;4.30;2.55;;;;;;;14.00;69.48;100717.56;4977591;28;98647;-30
2023/04/22 10:41:14;;;;;;;4.80;2.42;;;;;;;13.96;69.47;100705.16;4977750;28;96708;-32
2023/04/22 10:43:41;;;;;;;4.80;2.47;;;;;;;13.92;69.58;100711.84;4978063;28;96800;-31
2023/04/22 10:46:06;;;;;;;5.05;2.85;;;;;;;13.90;69.57;100705.66;4976176;28;98841;-31
2023/04/22 10:48:49;;;;;;;4.88;2.70;;;;;;;13.83;69.66;100692.66;4974314;28;98096;-33
2023/04/22 10:51:33;;;;;;;;;;;;;;;13.82;70.00;100702.63;4975013;28;97014;-31
2023/04/22 10:54:00;;;;;;;3.33;2.33;;;;;;;13.80;70.04;100700.06;4977833;28;96914;-31
2023/04/22 10:56:26;;;;;;;4.47;2.55;;;;;;;13.73;71.10;100687.00;4977320;28;98041;-31
2023/04/22 10:58:51;;;;;;;5.05;2.83;;;;;;;13.69;71.17;100672.78;4977455;28;97934;-30
2023/04/22 11:01:16;;;;;;;4.63;2.88;;;;;;;13.66;71.21;100683.03;4977571;28;96495;-31
2023/04/22 11:03:42;;;;;;;5.60;2.83;;;;;;;13.63;71.30;100697.75;4977625;28;96884;-30
2023/04/22 11:06:20;;;;;;;4.85;2.65;;;;;;;13.57;71.64;100709.97;4977302;28;97936;-31
2023/04/22 11:08:47;;;;;;;6.15;2.92;;;;;;;13.50;72.05;100727.75;4976011;28;101354;-32
2023/04/22 11:11:17;;;;;;;5.75;2.72;;;;;;;13.47;72.95;100724.41;4976094;28;96620;-31
2023/04/22 11:13:43;;;;;;;5.28;2.75;;;;;;;13.39;73.37;100719.53;4977360;28;96855;-32
2023/04/22 11:16:09;;;;;;;5.40;3.13;;;;;;;13.29;73.56;100729.38;4976531;28;99277;-34
2023/04/22 11:18:34;;;;;;;5.65;3.08;;;;;;;13.28;73.89;100741.25;4976914;28;99461;-30
2023/04/22 11:21:07;;;;;;;5.60;3.05;;;;;;;13.22;74.13;100755.28;4977227;28;96658;-33
2023/04/22 11:23:33;;;;;;;5.70;3.22;;;;;;;13.12;74.61;100736.06;4975945;28;96818;-31
2023/04/22 11:26:04;;;;;;;5.78;3.17;;;;;;;13.11;75.17;100746.06;4976940;28;97532;-30